createdAt,value
2022-10-23T00:04:20.896Z,83.90
2022-10-23T00:09:25.818Z,83.90
2022-10-23T00:14:28.438Z,83.86
2022-10-23T00:19:31.125Z,83.81
2022-10-23T00:24:35.361Z,83.67
2022-10-23T00:29:37.966Z,83.59
2022-10-23T00:34:42.331Z,83.47
2022-10-23T00:39:46.303Z,83.55
2022-10-23T00:45:23.295Z,83.69
2022-10-23T00:50:27.594Z,83.69
2022-10-23T00:55:32.145Z,83.73
2022-10-23T01:00:43.792Z,83.50
2022-10-23T01:05:50.717Z,83.78
2022-10-23T01:10:58.596Z,83.50
2022-10-23T01:16:11.047Z,83.68
2022-10-23T01:21:17.905Z,83.77
2022-10-23T01:26:32.132Z,83.86
2022-10-23T01:31:38.543Z,83.91
2022-10-23T01:36:43.198Z,83.78
2022-10-23T01:41:48.676Z,83.96
2022-10-23T01:46:59.579Z,83.97
2022-10-23T01:52:07.683Z,83.72
2022-10-23T01:57:13.403Z,83.67
2022-10-23T02:02:18.986Z,83.53
2022-10-23T02:07:22.243Z,83.66
2022-10-23T02:12:29.903Z,83.44
2022-10-23T02:17:42.203Z,83.47
2022-10-23T02:22:52.860Z,83.46
2022-10-23T02:27:57.577Z,83.56
2022-10-23T02:33:08.646Z,83.48
2022-10-23T02:38:32.982Z,83.44
2022-10-23T02:43:38.711Z,83.87
2022-10-23T02:48:46.868Z,83.87
2022-10-23T02:59:11.813Z,84.07
2022-10-23T03:04:17.260Z,84.22
2022-10-23T03:09:20.237Z,84.34
2022-10-23T03:14:22.823Z,84.23
2022-10-23T03:19:27.669Z,84.29
2022-10-23T03:24:32.157Z,84.46
2022-10-23T03:29:34.807Z,84.38
2022-10-23T03:34:38.891Z,84.52
2022-10-23T03:39:44.086Z,84.30
2022-10-23T03:44:46.768Z,84.62
2022-10-23T03:49:50.702Z,84.51
2022-10-23T03:54:53.396Z,84.67
2022-10-23T03:59:56.078Z,84.62
2022-10-23T04:04:59.987Z,84.60
2022-10-23T04:10:05.151Z,84.84
2022-10-23T04:15:08.876Z,84.91
2022-10-23T04:20:13.211Z,84.59
2022-10-23T04:25:16.557Z,84.54
2022-10-23T04:30:19.354Z,84.74
2022-10-23T04:35:23.910Z,84.96
2022-10-23T04:40:28.970Z,85.07
2022-10-23T04:45:31.666Z,84.89
2022-10-23T04:50:35.746Z,84.97
2022-10-23T04:56:04.234Z,85.01
2022-10-23T05:01:19.092Z,85.19
2022-10-23T05:06:24.791Z,85.35
2022-10-23T05:11:48.333Z,85.29
2022-10-23T05:16:53.343Z,85.13
2022-10-23T05:21:57.771Z,85.28
2022-10-23T05:27:03.252Z,85.46
2022-10-23T05:32:08.487Z,85.72
2022-10-23T05:37:14.515Z,85.50
2022-10-23T05:42:18.214Z,85.44
2022-10-23T05:47:21.890Z,85.81
2022-10-23T05:52:49.230Z,85.78
2022-10-23T05:58:19.211Z,85.90
2022-10-23T06:03:51.166Z,85.95
2022-10-23T06:08:57.826Z,86.01
2022-10-23T06:14:01.567Z,85.97
2022-10-23T06:19:04.610Z,85.97
2022-10-23T06:24:10.314Z,85.97
2022-10-23T06:29:19.927Z,85.96
2022-10-23T06:34:23.731Z,85.93
2022-10-23T06:39:29.881Z,85.88
2022-10-23T06:44:41.860Z,85.76
2022-10-23T06:49:46.071Z,85.53
2022-10-23T06:54:50.064Z,85.66
2022-10-23T06:59:56.475Z,85.21
2022-10-23T07:04:59.498Z,84.94
2022-10-23T07:10:04.013Z,84.54
2022-10-23T07:15:16.483Z,84.61
2022-10-23T07:20:19.715Z,84.36
2022-10-23T07:25:26.995Z,84.10
2022-10-23T07:30:29.958Z,83.70
2022-10-23T07:35:37.063Z,83.74
2022-10-23T07:40:47.017Z,83.58
2022-10-23T07:45:53.239Z,83.29
2022-10-23T07:51:03.109Z,83.27
2022-10-23T07:56:13.437Z,83.14
2022-10-23T08:01:38.674Z,83.08
2022-10-23T08:06:41.554Z,83.08
2022-10-23T08:11:45.644Z,83.12
2022-10-23T08:16:52.333Z,83.05
2022-10-23T08:22:15.264Z,82.93
2022-10-23T08:27:20.335Z,82.88
2022-10-23T08:32:24.364Z,82.46
2022-10-23T08:37:31.083Z,82.32
2022-10-23T08:42:38.577Z,82.24
2022-10-23T08:47:44.891Z,82.20
2022-10-23T08:53:01.810Z,82.10
2022-10-23T08:58:10.860Z,82.03
2022-10-23T09:03:13.980Z,82.07
2022-10-23T09:08:25.706Z,81.81
2022-10-23T09:13:59.175Z,81.68
2022-10-23T09:19:01.796Z,81.30
2022-10-23T09:24:04.858Z,81.10
2022-10-23T09:29:23.166Z,81.11
2022-10-23T09:34:28.292Z,80.93
2022-10-23T09:39:32.205Z,80.66
2022-10-23T09:44:36.133Z,80.47
2022-10-23T09:49:41.708Z,80.50
2022-10-23T09:54:46.914Z,80.45
2022-10-23T09:59:54.330Z,80.23
2022-10-23T10:04:58.262Z,80.03
2022-10-23T10:10:00.855Z,79.83
2022-10-23T10:15:12.657Z,79.51
2022-10-23T10:20:25.801Z,79.37
2022-10-23T10:25:31.426Z,79.13
2022-10-23T10:30:41.424Z,79.14
2022-10-23T10:35:50.901Z,79.17
2022-10-23T10:41:11.817Z,79.03
2022-10-23T10:46:19.442Z,78.92
2022-10-23T10:51:28.086Z,78.36
2022-10-23T10:56:32.943Z,77.29
2022-10-23T11:01:40.877Z,76.20
2022-10-23T11:06:45.509Z,75.45
2022-10-23T11:11:48.679Z,74.87
2022-10-23T11:16:54.589Z,73.63
2022-10-23T11:22:00.137Z,71.80
2022-10-23T11:27:19.101Z,70.63
2022-10-23T11:32:40.191Z,69.77
2022-10-23T11:37:43.120Z,68.84
2022-10-23T11:42:50.326Z,69.02
2022-10-23T11:47:59.222Z,68.79
2022-10-23T11:53:14.788Z,68.84
2022-10-23T11:58:23.369Z,69.60
2022-10-23T12:03:30.681Z,69.51
2022-10-23T12:08:35.255Z,69.73
2022-10-23T12:13:46.698Z,70.38
2022-10-23T12:18:52.974Z,70.02
2022-10-23T12:24:13.893Z,68.63
2022-10-23T12:29:26.997Z,67.22
2022-10-23T12:34:40.613Z,67.86
2022-10-23T12:39:43.584Z,68.42
2022-10-23T12:44:46.221Z,69.59
2022-10-23T12:49:51.917Z,70.47
2022-10-23T12:54:55.042Z,69.90
2022-10-23T12:59:59.350Z,70.28
2022-10-23T13:05:06.619Z,70.37
2022-10-23T13:10:14.284Z,70.34
2022-10-23T13:15:26.734Z,70.63
2022-10-23T13:20:31.897Z,70.91
2022-10-23T13:25:35.851Z,71.33
2022-10-23T13:30:42.048Z,71.21
2022-10-23T13:35:56.171Z,71.62
2022-10-23T13:40:59.504Z,71.54
2022-10-23T13:46:02.601Z,71.79
2022-10-23T13:51:13.254Z,72.13
2022-10-23T13:56:17.210Z,72.24
2022-10-23T14:01:23.114Z,72.94
2022-10-23T14:06:27.153Z,72.90
2022-10-23T14:11:29.735Z,73.37
2022-10-23T14:16:32.392Z,73.74
2022-10-23T14:21:36.478Z,73.76
2022-10-23T14:26:39.088Z,74.03
2022-10-23T14:31:41.868Z,74.22
2022-10-23T14:36:50.542Z,74.38
2022-10-23T14:41:53.707Z,74.63
2022-10-23T14:46:56.284Z,74.89
2022-10-23T14:52:00.366Z,75.11
2022-10-23T14:57:03.155Z,75.07
2022-10-23T15:02:05.881Z,75.25
2022-10-23T15:07:09.961Z,75.32
2022-10-23T15:12:12.580Z,75.29
2022-10-23T15:17:15.588Z,75.52
2022-10-23T15:22:20.139Z,75.65
2022-10-23T15:27:22.750Z,75.71
2022-10-23T15:32:25.422Z,75.73
2022-10-23T15:37:29.358Z,75.62
2022-10-23T15:42:31.971Z,75.45
2022-10-23T15:47:34.856Z,75.37
2022-10-23T15:52:39.220Z,75.34
2022-10-23T15:57:42.435Z,75.19
2022-10-23T16:02:45.605Z,75.32
2022-10-23T16:07:49.887Z,75.13
2022-10-23T16:12:53.027Z,75.13
2022-10-23T16:17:55.669Z,75.21
2022-10-23T16:22:59.627Z,74.99
2022-10-23T16:28:02.230Z,74.95
2022-10-23T16:33:04.857Z,74.86
2022-10-23T16:38:08.837Z,74.80
2022-10-23T16:43:11.518Z,74.91
2022-10-23T16:48:20.440Z,74.76
2022-10-23T16:53:28.894Z,74.64
2022-10-23T16:58:31.565Z,74.73
2022-10-23T17:03:35.815Z,74.73
2022-10-23T17:08:40.355Z,74.70
2022-10-23T17:13:44.675Z,74.64
2022-10-23T17:18:47.633Z,74.76
2022-10-23T17:23:51.828Z,74.77
2022-10-23T17:28:54.457Z,74.76
2022-10-23T17:33:59.314Z,74.84
2022-10-23T17:39:03.425Z,74.72
2022-10-23T17:44:06.711Z,74.67
2022-10-23T17:49:09.450Z,74.59
2022-10-23T17:54:14.554Z,74.53
2022-10-23T17:59:18.988Z,74.50
2022-10-23T18:04:22.594Z,74.45
2022-10-23T18:09:26.589Z,74.32
2022-10-23T18:14:29.714Z,74.25
2022-10-23T18:19:32.646Z,74.38
2022-10-23T18:24:37.940Z,74.35
2022-10-23T18:29:43.325Z,74.38
2022-10-23T18:34:45.977Z,74.34
2022-10-23T18:39:49.905Z,74.15
2022-10-23T18:44:52.724Z,74.22
2022-10-23T18:49:55.464Z,74.15
2022-10-23T18:54:59.414Z,74.11
2022-10-23T19:00:03.517Z,73.98
2022-10-23T19:05:07.430Z,73.93
2022-10-23T19:10:15.721Z,73.89
2022-10-23T19:15:18.446Z,73.77
2022-10-23T19:20:21.409Z,73.68
2022-10-23T19:25:27.580Z,73.67
2022-10-23T19:30:30.812Z,73.56
2022-10-23T19:35:33.500Z,73.37
2022-10-23T19:40:37.555Z,73.24
2022-10-23T19:45:40.213Z,73.16
2022-10-23T19:50:42.861Z,72.97
2022-10-23T19:55:46.949Z,72.95
2022-10-23T20:00:49.679Z,73.04
2022-10-23T20:05:52.276Z,73.00
2022-10-23T20:16:00.019Z,72.64
2022-10-23T20:21:03.177Z,72.78
2022-10-23T20:26:08.524Z,72.61
2022-10-23T20:31:12.350Z,72.65
2022-10-23T20:36:26.968Z,72.53
2022-10-23T20:41:33.145Z,72.64
2022-10-23T20:46:36.015Z,72.75
2022-10-23T20:51:38.818Z,72.86
2022-10-23T20:56:43.053Z,72.97
2022-10-23T21:01:49.222Z,73.08
2022-10-23T21:07:08.823Z,73.63
2022-10-23T21:12:14.169Z,74.22
2022-10-23T21:17:18.126Z,74.73
2022-10-23T21:22:20.814Z,75.17
2022-10-23T21:27:24.823Z,75.69
2022-10-23T21:32:27.398Z,76.21
2022-10-23T21:37:30.037Z,76.25
2022-10-23T21:42:34.136Z,76.38
2022-10-23T21:47:37.034Z,76.38
2022-10-23T21:52:40.255Z,76.54
2022-10-23T21:57:44.352Z,76.43
2022-10-23T22:02:47.465Z,76.79
2022-10-23T22:07:50.431Z,77.04
2022-10-23T22:12:54.407Z,77.10
2022-10-23T22:17:57.349Z,77.44
2022-10-23T22:22:59.950Z,77.83
2022-10-23T22:28:04.084Z,77.98
2022-10-23T22:33:06.749Z,78.28
2022-10-23T22:38:09.337Z,78.67
2022-10-23T22:43:13.268Z,79.12
2022-10-23T22:48:15.902Z,79.04
2022-10-23T22:53:18.699Z,79.29
2022-10-23T22:58:23.132Z,79.53
2022-10-23T23:03:25.933Z,79.80
2022-10-23T23:08:28.565Z,79.83
2022-10-23T23:13:32.549Z,80.08
2022-10-23T23:18:35.843Z,80.51
2022-10-23T23:23:38.488Z,80.64
2022-10-23T23:28:42.753Z,80.85
2022-10-23T23:33:45.512Z,80.90
2022-10-23T23:38:48.134Z,81.35
2022-10-23T23:43:54.659Z,81.68
2022-10-23T23:48:57.305Z,81.70
2022-10-23T23:53:59.951Z,81.92
2022-10-23T23:59:03.947Z,82.29
